Rhonda Lamulle — WDC8441 — position and weather

sailwx.info

Track history (hours):
 
Tides and Currents Weather Stations Pressure Air Temp Water Temp Dewpoint Dewpoint Depression Visibility Wind Speed Wind Dir Waves Ship Positions

Rhonda Lamulle

Owner: Florida Marine, LLC, Mandeville, LA. More information available from US FCC via Universal Licensing System and Coast Guard Vessel Documentation Center.

Last reported at 2016-Apr-25 22:04 UTC. Time now 2016-Apr-29 08:13 UTC.
Position N 29°57' W 090°14'.

Length 13 m; draft 3 m.

Type: Towing. MMSI: 367087104.

Date/timePositionNaut miles runAvg speedWind from/ knotsBaromVisibWave heightAir tempDewpointWater temp
2016-Apr-25 22:04N 29°57' W 090°14'3 3.8
2016-Apr-25 21:20N 29°56' W 090°11'2 3.1
2016-Apr-25 20:33N 29°56' W 090°08'4 3.8
2016-Apr-25 19:33N 29°55' W 090°04'3 2.8
2016-Apr-25 18:33N 29°58' W 090°02'1 0.8
2016-Apr-25 17:33N 29°58' W 090°02'1 0.5
2016-Apr-25 16:33N 29°59' W 090°01'1 1.2
2016-Apr-25 15:33N 29°60' W 090°01'0 0.0
2016-Apr-25 14:33N 29°60' W 090°01'0 0.0
2016-Apr-25 13:33N 29°60' W 090°01'0 0.0
2016-Apr-25 12:33N 29°60' W 090°01'0 0.0
2016-Apr-25 11:33N 29°60' W 090°01'0 0.0
2016-Apr-25 10:33N 29°60' W 090°01'0 0.0
2016-Apr-25 09:33N 29°60' W 090°01'0 0.0
2016-Apr-25 08:33N 29°60' W 090°01'0 0.0
2016-Apr-25 07:33N 29°60' W 090°01'0 0.0
2016-Apr-25 06:33N 29°60' W 090°01'0 0.0
2016-Apr-25 05:33N 29°60' W 090°01'0 0.0
2016-Apr-25 04:33N 29°60' W 090°01'0 0.0
2016-Apr-25 03:33N 29°60' W 090°01'0 0.0
2016-Apr-25 02:33N 29°60' W 090°01'0 0.0
2016-Apr-25 01:33N 29°60' W 090°01'0 0.0
2016-Apr-25 00:33N 29°60' W 090°01'0 0.0
2016-Apr-24 23:33N 29°60' W 090°01'0 0.0
2016-Apr-24 22:33N 29°60' W 090°01'0 0.0
2016-Apr-24 21:33N 29°60' W 090°01'0 0.0
2016-Apr-24 20:33N 29°60' W 090°01'0 0.0
2016-Apr-24 19:33N 29°60' W 090°01'0 0.0
2016-Apr-24 18:33N 29°60' W 090°01'0 0.0
2016-Apr-24 17:33N 29°60' W 090°01'0 0.0
2016-Apr-24 16:33N 29°60' W 090°01'0 0.0
2016-Apr-24 15:33N 29°60' W 090°01'0 0.0
2016-Apr-24 14:33N 29°60' W 090°01'0 0.0
2016-Apr-24 13:33N 29°60' W 090°01'0 0.0
2016-Apr-24 12:33N 29°60' W 090°01'0 0.0
2016-Apr-24 11:33N 29°60' W 090°01'0 0.0
2016-Apr-24 10:33N 29°60' W 090°01'1 1.1
2016-Apr-24 09:33N 29°60' W 090°00'164 5.1
2016-Apr-23 01:33N 30°24' W 086°52'6 6.3
2016-Apr-23 00:33N 30°24' W 086°45'7 0.3
2016-Apr-21 21:33N 30°24' W 086°37'5 5.5
2016-Apr-21 20:33N 30°25' W 086°31'4 4.3
2016-Apr-21 19:33N 30°28' W 086°28'1 1.0
2016-Apr-21 18:33N 30°29' W 086°29'0 0.1
2016-Apr-21 17:33N 30°29' W 086°29'0 0.0
2016-Apr-21 16:33N 30°29' W 086°29'0 0.0
2016-Apr-21 15:33N 30°29' W 086°29'0 0.0
2016-Apr-21 14:33N 30°29' W 086°29'0 0.0
2016-Apr-21 13:05N 30°29' W 086°29'0 0.0
2016-Apr-21 12:33N 30°29' W 086°29'0 0.0
2016-Apr-21 11:33N 30°29' W 086°29'0 0.1
2016-Apr-21 10:33N 30°29' W 086°29'1 0.9
2016-Apr-21 09:33N 30°29' W 086°28'6 6.1
2016-Apr-21 08:33N 30°26' W 086°22'7 7.0
2016-Apr-21 07:32N 30°26' W 086°14'39 1.7
2016-Apr-20 08:19N 30°05' W 085°35'0 0.0
2016-Apr-20 05:21N 30°05' W 085°35'10 3.4
2016-Apr-20 02:32N 30°11' W 085°44'32 4.6
2016-Apr-19 19:33N 30°26' W 086°17'6 6.1
2016-Apr-19 18:33N 30°26' W 086°24'6 5.9
2016-Apr-19 17:33N 30°25' W 086°31'5 5.1
2016-Apr-19 16:30N 30°24' W 086°37'6 4.8
2016-Apr-19 15:17N 30°24' W 086°44'4 5.5
2016-Apr-19 14:33N 30°24' W 086°49'  
Track history (hours):
 
Tides and Currents Weather Stations Pressure Air Temp Water Temp Dewpoint Dewpoint Depression Visibility Wind Speed Wind Dir Waves Ship Positions

Rhonda Lamulle

Owner: Florida Marine, LLC, Mandeville, LA. More information available from US FCC via Universal Licensing System and Coast Guard Vessel Documentation Center.

Last reported at 2016-Apr-25 22:04 UTC. Time now 2016-Apr-29 08:13 UTC.
Position N 29°57' W 090°14'.

Length 13 m; draft 3 m.

Type: Towing. MMSI: 367087104.

Date/timePositionNaut miles runAvg speedWind from/ knotsBaromVisibWave heightAir tempDewpointWater temp
2016-Apr-25 22:04N 29°57' W 090°14'3 3.8
2016-Apr-25 21:20N 29°56' W 090°11'2 3.1
2016-Apr-25 20:33N 29°56' W 090°08'4 3.8
2016-Apr-25 19:33N 29°55' W 090°04'3 2.8
2016-Apr-25 18:33N 29°58' W 090°02'1 0.8
2016-Apr-25 17:33N 29°58' W 090°02'1 0.5
2016-Apr-25 16:33N 29°59' W 090°01'1 1.2
2016-Apr-25 15:33N 29°60' W 090°01'0 0.0
2016-Apr-25 14:33N 29°60' W 090°01'0 0.0
2016-Apr-25 13:33N 29°60' W 090°01'0 0.0
2016-Apr-25 12:33N 29°60' W 090°01'0 0.0
2016-Apr-25 11:33N 29°60' W 090°01'0 0.0
2016-Apr-25 10:33N 29°60' W 090°01'0 0.0
2016-Apr-25 09:33N 29°60' W 090°01'0 0.0
2016-Apr-25 08:33N 29°60' W 090°01'0 0.0
2016-Apr-25 07:33N 29°60' W 090°01'0 0.0
2016-Apr-25 06:33N 29°60' W 090°01'0 0.0
2016-Apr-25 05:33N 29°60' W 090°01'0 0.0
2016-Apr-25 04:33N 29°60' W 090°01'0 0.0
2016-Apr-25 03:33N 29°60' W 090°01'0 0.0
2016-Apr-25 02:33N 29°60' W 090°01'0 0.0
2016-Apr-25 01:33N 29°60' W 090°01'0 0.0
2016-Apr-25 00:33N 29°60' W 090°01'0 0.0
2016-Apr-24 23:33N 29°60' W 090°01'0 0.0
2016-Apr-24 22:33N 29°60' W 090°01'0 0.0
2016-Apr-24 21:33N 29°60' W 090°01'0 0.0
2016-Apr-24 20:33N 29°60' W 090°01'0 0.0
2016-Apr-24 19:33N 29°60' W 090°01'0 0.0
2016-Apr-24 18:33N 29°60' W 090°01'0 0.0
2016-Apr-24 17:33N 29°60' W 090°01'0 0.0
2016-Apr-24 16:33N 29°60' W 090°01'0 0.0
2016-Apr-24 15:33N 29°60' W 090°01'0 0.0
2016-Apr-24 14:33N 29°60' W 090°01'0 0.0
2016-Apr-24 13:33N 29°60' W 090°01'0 0.0
2016-Apr-24 12:33N 29°60' W 090°01'0 0.0
2016-Apr-24 11:33N 29°60' W 090°01'0 0.0
2016-Apr-24 10:33N 29°60' W 090°01'1 1.1
2016-Apr-24 09:33N 29°60' W 090°00'164 5.1
2016-Apr-23 01:33N 30°24' W 086°52'6 6.3
2016-Apr-23 00:33N 30°24' W 086°45'7 0.3
2016-Apr-21 21:33N 30°24' W 086°37'5 5.5
2016-Apr-21 20:33N 30°25' W 086°31'4 4.3
2016-Apr-21 19:33N 30°28' W 086°28'1 1.0
2016-Apr-21 18:33N 30°29' W 086°29'0 0.1
2016-Apr-21 17:33N 30°29' W 086°29'0 0.0
2016-Apr-21 16:33N 30°29' W 086°29'0 0.0
2016-Apr-21 15:33N 30°29' W 086°29'0 0.0
2016-Apr-21 14:33N 30°29' W 086°29'0 0.0
2016-Apr-21 13:05N 30°29' W 086°29'0 0.0
2016-Apr-21 12:33N 30°29' W 086°29'0 0.0
2016-Apr-21 11:33N 30°29' W 086°29'0 0.1
2016-Apr-21 10:33N 30°29' W 086°29'1 0.9
2016-Apr-21 09:33N 30°29' W 086°28'6 6.1
2016-Apr-21 08:33N 30°26' W 086°22'7 7.0
2016-Apr-21 07:32N 30°26' W 086°14'39 1.7
2016-Apr-20 08:19N 30°05' W 085°35'0 0.0
2016-Apr-20 05:21N 30°05' W 085°35'10 3.4
2016-Apr-20 02:32N 30°11' W 085°44'32 4.6
2016-Apr-19 19:33N 30°26' W 086°17'6 6.1
2016-Apr-19 18:33N 30°26' W 086°24'6 5.9
2016-Apr-19 17:33N 30°25' W 086°31'5 5.1
2016-Apr-19 16:30N 30°24' W 086°37'6 4.8
2016-Apr-19 15:17N 30°24' W 086°44'4 5.5
2016-Apr-19 14:33N 30°24' W 086°49'  

Dump ship's entire track history